sensor_id;sensor_type;location;lat;lon;timestamp;temperature;humidity
31731;DHT22;18310;55.586;12.286;2022-08-30T00:01:22;18.60;59.60
31731;DHT22;18310;55.586;12.286;2022-08-30T00:04:27;20.60;61.00
31731;DHT22;18310;55.586;12.286;2022-08-30T00:07:30;18.50;59.80
31731;DHT22;18310;55.586;12.286;2022-08-30T00:10:33;18.50;60.00
31731;DHT22;18310;55.586;12.286;2022-08-30T00:13:37;18.50;60.20
31731;DHT22;18310;55.586;12.286;2022-08-30T00:16:42;18.20;60.10
31731;DHT22;18310;55.586;12.286;2022-08-30T00:19:46;18.50;60.70
31731;DHT22;18310;55.586;12.286;2022-08-30T00:22:49;18.50;60.50
31731;DHT22;18310;55.586;12.286;2022-08-30T00:25:52;18.40;60.30
31731;DHT22;18310;55.586;12.286;2022-08-30T00:28:56;18.40;60.40
31731;DHT22;18310;55.586;12.286;2022-08-30T00:32:01;18.40;60.40
31731;DHT22;18310;55.586;12.286;2022-08-30T00:35:06;18.30;60.40
31731;DHT22;18310;55.586;12.286;2022-08-30T00:38:13;20.10;61.40
31731;DHT22;18310;55.586;12.286;2022-08-30T00:41:17;18.20;60.50
31731;DHT22;18310;55.586;12.286;2022-08-30T00:44:20;18.10;60.50
31731;DHT22;18310;55.586;12.286;2022-08-30T00:47:26;18.00;60.50
31731;DHT22;18310;55.586;12.286;2022-08-30T00:50:33;17.90;60.30
31731;DHT22;18310;55.586;12.286;2022-08-30T00:53:42;17.90;60.80
31731;DHT22;18310;55.586;12.286;2022-08-30T00:56:48;16.60;60.20
31731;DHT22;18310;55.586;12.286;2022-08-30T00:59:52;17.70;60.60
31731;DHT22;18310;55.586;12.286;2022-08-30T01:02:56;17.70;61.00
31731;DHT22;18310;55.586;12.286;2022-08-30T01:06:02;17.50;60.80
31731;DHT22;18310;55.586;12.286;2022-08-30T01:09:07;17.50;60.90
31731;DHT22;18310;55.586;12.286;2022-08-30T01:12:11;17.40;61.40
31731;DHT22;18310;55.586;12.286;2022-08-30T01:15:18;17.40;61.40
31731;DHT22;18310;55.586;12.286;2022-08-30T01:18:23;19.80;63.00
31731;DHT22;18310;55.586;12.286;2022-08-30T01:21:33;17.20;61.80
31731;DHT22;18310;55.586;12.286;2022-08-30T01:24:43;17.20;62.20
31731;DHT22;18310;55.586;12.286;2022-08-30T01:27:52;17.60;62.40
31731;DHT22;18310;55.586;12.286;2022-08-30T01:30:58;17.00;62.50
31731;DHT22;18310;55.586;12.286;2022-08-30T01:34:03;16.90;62.50
31731;DHT22;18310;55.586;12.286;2022-08-30T01:37:08;18.40;63.50
31731;DHT22;18310;55.586;12.286;2022-08-30T01:40:13;16.90;62.70
31731;DHT22;18310;55.586;12.286;2022-08-30T01:43:20;14.50;61.60
31731;DHT22;18310;55.586;12.286;2022-08-30T01:46:26;16.70;62.80
31731;DHT22;18310;55.586;12.286;2022-08-30T01:49:31;20.10;64.90
31731;DHT22;18310;55.586;12.286;2022-08-30T01:52:34;16.60;63.30
31731;DHT22;18310;55.586;12.286;2022-08-30T01:55:39;18.30;64.50
31731;DHT22;18310;55.586;12.286;2022-08-30T01:58:43;16.60;63.70
31731;DHT22;18310;55.586;12.286;2022-08-30T02:01:47;16.60;63.80
31731;DHT22;18310;55.586;12.286;2022-08-30T02:04:51;16.50;63.80
31731;DHT22;18310;55.586;12.286;2022-08-30T02:07:54;16.50;64.00
31731;DHT22;18310;55.586;12.286;2022-08-30T02:10:59;16.50;64.60
31731;DHT22;18310;55.586;12.286;2022-08-30T02:14:02;16.40;63.90
31731;DHT22;18310;55.586;12.286;2022-08-30T02:17:08;16.10;63.70
31731;DHT22;18310;55.586;12.286;2022-08-30T02:20:13;16.70;64.20
31731;DHT22;18310;55.586;12.286;2022-08-30T02:23:17;16.20;64.00
31731;DHT22;18310;55.586;12.286;2022-08-30T02:26:22;16.10;64.20
31731;DHT22;18310;55.586;12.286;2022-08-30T02:29:26;16.10;64.40
31731;DHT22;18310;55.586;12.286;2022-08-30T02:32:30;16.40;64.70
31731;DHT22;18310;55.586;12.286;2022-08-30T02:35:33;15.90;64.80
31731;DHT22;18310;55.586;12.286;2022-08-30T02:38:36;15.80;65.30
31731;DHT22;18310;55.586;12.286;2022-08-30T02:41:41;16.40;65.70
31731;DHT22;18310;55.586;12.286;2022-08-30T02:44:45;15.80;65.60
31731;DHT22;18310;55.586;12.286;2022-08-30T02:47:48;15.60;65.30
31731;DHT22;18310;55.586;12.286;2022-08-30T02:50:52;15.70;65.70
31731;DHT22;18310;55.586;12.286;2022-08-30T02:53:55;15.70;66.00
31731;DHT22;18310;55.586;12.286;2022-08-30T02:57:00;15.70;66.50
31731;DHT22;18310;55.586;12.286;2022-08-30T03:00:06;15.60;66.10
31731;DHT22;18310;55.586;12.286;2022-08-30T03:03:13;15.60;66.10
31731;DHT22;18310;55.586;12.286;2022-08-30T03:06:17;15.60;66.30
31731;DHT22;18310;55.586;12.286;2022-08-30T03:09:21;15.50;66.30
31731;DHT22;18310;55.586;12.286;2022-08-30T03:12:25;15.40;66.20
31731;DHT22;18310;55.586;12.286;2022-08-30T03:15:29;17.30;68.00
31731;DHT22;18310;55.586;12.286;2022-08-30T03:18:32;15.40;66.60
31731;DHT22;18310;55.586;12.286;2022-08-30T03:21:36;15.90;66.80
31731;DHT22;18310;55.586;12.286;2022-08-30T03:24:40;15.40;66.50
31731;DHT22;18310;55.586;12.286;2022-08-30T03:27:44;13.20;65.30
31731;DHT22;18310;55.586;12.286;2022-08-30T03:30:48;15.30;66.70
31731;DHT22;18310;55.586;12.286;2022-08-30T03:33:51;15.20;66.80
31731;DHT22;18310;55.586;12.286;2022-08-30T03:36:55;15.10;66.80
31731;DHT22;18310;55.586;12.286;2022-08-30T03:39:58;15.10;67.10
31731;DHT22;18310;55.586;12.286;2022-08-30T03:43:04;15.10;68.40
31731;DHT22;18310;55.586;12.286;2022-08-30T03:46:10;15.90;67.70
31731;DHT22;18310;55.586;12.286;2022-08-30T03:49:14;15.10;67.40
31731;DHT22;18310;55.586;12.286;2022-08-30T03:52:17;15.10;67.30
31731;DHT22;18310;55.586;12.286;2022-08-30T03:55:21;15.00;67.20
31731;DHT22;18310;55.586;12.286;2022-08-30T04:01:29;15.00;67.50
31731;DHT22;18310;55.586;12.286;2022-08-30T04:04:33;15.00;68.20
31731;DHT22;18310;55.586;12.286;2022-08-30T04:07:36;15.00;68.40
31731;DHT22;18310;55.586;12.286;2022-08-30T04:10:39;15.00;68.40
31731;DHT22;18310;55.586;12.286;2022-08-30T04:13:44;15.00;68.40
31731;DHT22;18310;55.586;12.286;2022-08-30T04:16:50;15.00;68.60
31731;DHT22;18310;55.586;12.286;2022-08-30T04:19:53;15.10;68.60
31731;DHT22;18310;55.586;12.286;2022-08-30T04:22:57;15.10;68.60
31731;DHT22;18310;55.586;12.286;2022-08-30T04:26:00;15.10;68.50
31731;DHT22;18310;55.586;12.286;2022-08-30T04:29:05;15.10;68.40
31731;DHT22;18310;55.586;12.286;2022-08-30T04:32:08;15.20;68.60
31731;DHT22;18310;55.586;12.286;2022-08-30T04:35:11;15.10;68.30
31731;DHT22;18310;55.586;12.286;2022-08-30T04:38:16;15.20;68.40
31731;DHT22;18310;55.586;12.286;2022-08-30T04:41:23;15.10;68.20
31731;DHT22;18310;55.586;12.286;2022-08-30T04:44:28;15.20;68.40
31731;DHT22;18310;55.586;12.286;2022-08-30T04:47:32;15.20;68.60
31731;DHT22;18310;55.586;12.286;2022-08-30T04:50:36;15.20;68.30
31731;DHT22;18310;55.586;12.286;2022-08-30T04:56:43;15.20;67.70
31731;DHT22;18310;55.586;12.286;2022-08-30T04:59:47;15.20;68.20
31731;DHT22;18310;55.586;12.286;2022-08-30T05:02:51;15.20;68.30
31731;DHT22;18310;55.586;12.286;2022-08-30T05:05:54;15.10;67.80
31731;DHT22;18310;55.586;12.286;2022-08-30T05:08:58;15.20;68.30
31731;DHT22;18310;55.586;12.286;2022-08-30T05:12:02;17.10;69.50
31731;DHT22;18310;55.586;12.286;2022-08-30T05:15:08;15.30;69.50
31731;DHT22;18310;55.586;12.286;2022-08-30T05:18:13;15.70;70.80
31731;DHT22;18310;55.586;12.286;2022-08-30T05:21:18;16.00;70.90
31731;DHT22;18310;55.586;12.286;2022-08-30T05:24:23;17.50;70.90
31731;DHT22;18310;55.586;12.286;2022-08-30T05:27:26;17.00;68.90
31731;DHT22;18310;55.586;12.286;2022-08-30T05:30:33;17.60;69.10
31731;DHT22;18310;55.586;12.286;2022-08-30T05:33:38;18.10;67.00
31731;DHT22;18310;55.586;12.286;2022-08-30T05:36:42;18.60;66.30
31731;DHT22;18310;55.586;12.286;2022-08-30T05:39:45;19.00;65.70
31731;DHT22;18310;55.586;12.286;2022-08-30T05:42:52;19.50;64.90
31731;DHT22;18310;55.586;12.286;2022-08-30T05:46:00;20.00;63.60
31731;DHT22;18310;55.586;12.286;2022-08-30T05:49:06;20.40;60.90
31731;DHT22;18310;55.586;12.286;2022-08-30T05:52:10;20.80;60.60
31731;DHT22;18310;55.586;12.286;2022-08-30T05:55:16;21.20;59.80
31731;DHT22;18310;55.586;12.286;2022-08-30T05:58:20;21.50;58.70
31731;DHT22;18310;55.586;12.286;2022-08-30T06:01:27;21.90;57.60
31731;DHT22;18310;55.586;12.286;2022-08-30T06:04:32;22.00;55.90
31731;DHT22;18310;55.586;12.286;2022-08-30T06:07:37;22.20;56.10
31731;DHT22;18310;55.586;12.286;2022-08-30T06:10:40;22.50;55.20
31731;DHT22;18310;55.586;12.286;2022-08-30T06:13:44;22.70;54.60
31731;DHT22;18310;55.586;12.286;2022-08-30T06:16:49;23.00;53.40
31731;DHT22;18310;55.586;12.286;2022-08-30T06:19:53;23.10;52.10
31731;DHT22;18310;55.586;12.286;2022-08-30T06:22:56;23.30;52.00
31731;DHT22;18310;55.586;12.286;2022-08-30T06:26:03;23.40;49.90
31731;DHT22;18310;55.586;12.286;2022-08-30T06:29:08;23.50;48.80
31731;DHT22;18310;55.586;12.286;2022-08-30T06:32:13;23.60;50.10
31731;DHT22;18310;55.586;12.286;2022-08-30T06:35:16;23.70;49.10
31731;DHT22;18310;55.586;12.286;2022-08-30T06:38:19;23.70;48.70
31731;DHT22;18310;55.586;12.286;2022-08-30T06:41:25;23.70;48.30
31731;DHT22;18310;55.586;12.286;2022-08-30T06:44:29;23.60;47.30
31731;DHT22;18310;55.586;12.286;2022-08-30T06:47:34;23.60;47.00
31731;DHT22;18310;55.586;12.286;2022-08-30T06:50:37;23.50;47.40
31731;DHT22;18310;55.586;12.286;2022-08-30T06:53:42;23.60;47.90
31731;DHT22;18310;55.586;12.286;2022-08-30T06:56:46;23.70;47.50
31731;DHT22;18310;55.586;12.286;2022-08-30T07:00:03;22.80;48.20
31731;DHT22;18310;55.586;12.286;2022-08-30T07:03:12;24.10;46.80
31731;DHT22;18310;55.586;12.286;2022-08-30T07:06:17;24.10;46.10
31731;DHT22;18310;55.586;12.286;2022-08-30T07:09:20;25.30;46.80
31731;DHT22;18310;55.586;12.286;2022-08-30T07:12:24;24.50;44.00
31731;DHT22;18310;55.586;12.286;2022-08-30T07:15:27;24.60;46.30
31731;DHT22;18310;55.586;12.286;2022-08-30T07:18:36;24.70;44.60
31731;DHT22;18310;55.586;12.286;2022-08-30T07:21:55;24.70;42.80
31731;DHT22;18310;55.586;12.286;2022-08-30T07:24:58;27.00;44.20
31731;DHT22;18310;55.586;12.286;2022-08-30T07:28:03;24.40;42.80
31731;DHT22;18310;55.586;12.286;2022-08-30T07:31:06;24.20;42.30
31731;DHT22;18310;55.586;12.286;2022-08-30T07:34:11;23.90;43.90
31731;DHT22;18310;55.586;12.286;2022-08-30T07:37:14;23.60;41.80
31731;DHT22;18310;55.586;12.286;2022-08-30T07:40:19;23.20;40.80
31731;DHT22;18310;55.586;12.286;2022-08-30T07:43:22;22.90;42.30
31731;DHT22;18310;55.586;12.286;2022-08-30T07:46:26;22.60;42.50
31731;DHT22;18310;55.586;12.286;2022-08-30T07:49:31;22.30;43.00
31731;DHT22;18310;55.586;12.286;2022-08-30T07:52:34;22.10;43.30
31731;DHT22;18310;55.586;12.286;2022-08-30T07:55:39;22.00;43.80
31731;DHT22;18310;55.586;12.286;2022-08-30T07:58:42;21.90;44.20
31731;DHT22;18310;55.586;12.286;2022-08-30T08:01:45;21.80;44.20
31731;DHT22;18310;55.586;12.286;2022-08-30T08:04:50;21.70;44.40
31731;DHT22;18310;55.586;12.286;2022-08-30T08:07:53;21.60;44.50
31731;DHT22;18310;55.586;12.286;2022-08-30T08:10:57;21.60;44.80
31731;DHT22;18310;55.586;12.286;2022-08-30T08:14:01;21.60;44.90
31731;DHT22;18310;55.586;12.286;2022-08-30T08:17:05;21.60;44.60
31731;DHT22;18310;55.586;12.286;2022-08-30T08:20:10;23.90;45.60
31731;DHT22;18310;55.586;12.286;2022-08-30T08:23:14;21.60;44.60
31731;DHT22;18310;55.586;12.286;2022-08-30T08:26:19;21.60;44.40
31731;DHT22;18310;55.586;12.286;2022-08-30T08:29:23;21.60;43.70
31731;DHT22;18310;55.586;12.286;2022-08-30T08:32:27;21.60;44.60
31731;DHT22;18310;55.586;12.286;2022-08-30T08:35:32;21.50;44.50
31731;DHT22;18310;55.586;12.286;2022-08-30T08:38:36;21.50;44.40
31731;DHT22;18310;55.586;12.286;2022-08-30T08:41:48;21.40;44.60
31731;DHT22;18310;55.586;12.286;2022-08-30T08:44:59;21.50;45.20
31731;DHT22;18310;55.586;12.286;2022-08-30T08:48:21;21.50;44.30
31731;DHT22;18310;55.586;12.286;2022-08-30T08:51:53;21.60;44.80
31731;DHT22;18310;55.586;12.286;2022-08-30T08:55:17;21.70;44.50
31731;DHT22;18310;55.586;12.286;2022-08-30T08:58:26;21.70;44.50
31731;DHT22;18310;55.586;12.286;2022-08-30T09:01:31;23.10;45.30
31731;DHT22;18310;55.586;12.286;2022-08-30T09:04:36;21.80;44.30
31731;DHT22;18310;55.586;12.286;2022-08-30T09:07:46;21.80;44.20
31731;DHT22;18310;55.586;12.286;2022-08-30T09:10:54;21.80;44.20
31731;DHT22;18310;55.586;12.286;2022-08-30T09:14:01;21.90;44.60
31731;DHT22;18310;55.586;12.286;2022-08-30T09:17:06;22.00;44.40
31731;DHT22;18310;55.586;12.286;2022-08-30T09:20:10;22.00;44.40
31731;DHT22;18310;55.586;12.286;2022-08-30T09:23:24;22.10;44.30
31731;DHT22;18310;55.586;12.286;2022-08-30T09:26:31;22.20;43.20
31731;DHT22;18310;55.586;12.286;2022-08-30T09:29:49;22.20;43.70
31731;DHT22;18310;55.586;12.286;2022-08-30T09:32:56;22.60;43.60
31731;DHT22;18310;55.586;12.286;2022-08-30T09:36:13;22.30;43.30
31731;DHT22;18310;55.586;12.286;2022-08-30T09:39:29;21.50;42.50
31731;DHT22;18310;55.586;12.286;2022-08-30T09:42:34;22.40;43.10
31731;DHT22;18310;55.586;12.286;2022-08-30T09:45:40;22.40;43.20
31731;DHT22;18310;55.586;12.286;2022-08-30T09:48:45;22.50;43.20
31731;DHT22;18310;55.586;12.286;2022-08-30T09:51:54;22.50;43.00
31731;DHT22;18310;55.586;12.286;2022-08-30T09:55:23;22.50;43.00
31731;DHT22;18310;55.586;12.286;2022-08-30T09:58:46;22.50;42.90
31731;DHT22;18310;55.586;12.286;2022-08-30T10:02:08;21.00;41.60
31731;DHT22;18310;55.586;12.286;2022-08-30T10:05:43;22.60;42.80
31731;DHT22;18310;55.586;12.286;2022-08-30T10:09:05;22.60;42.40
31731;DHT22;18310;55.586;12.286;2022-08-30T10:12:25;22.70;41.60
31731;DHT22;18310;55.586;12.286;2022-08-30T10:15:38;22.70;40.90
31731;DHT22;18310;55.586;12.286;2022-08-30T10:18:53;22.80;41.30
31731;DHT22;18310;55.586;12.286;2022-08-30T10:22:11;22.80;41.40
31731;DHT22;18310;55.586;12.286;2022-08-30T10:25:22;22.80;41.00
31731;DHT22;18310;55.586;12.286;2022-08-30T10:28:35;22.80;41.30
31731;DHT22;18310;55.586;12.286;2022-08-30T10:31:46;24.30;42.10
31731;DHT22;18310;55.586;12.286;2022-08-30T10:34:56;22.90;40.80
31731;DHT22;18310;55.586;12.286;2022-08-30T10:38:09;22.90;40.80
31731;DHT22;18310;55.586;12.286;2022-08-30T10:41:23;22.90;41.10
31731;DHT22;18310;55.586;12.286;2022-08-30T10:44:36;23.00;40.80
31731;DHT22;18310;55.586;12.286;2022-08-30T10:47:50;23.00;40.90
31731;DHT22;18310;55.586;12.286;2022-08-30T10:51:07;25.60;42.90
31731;DHT22;18310;55.586;12.286;2022-08-30T10:54:18;22.20;40.30
31731;DHT22;18310;55.586;12.286;2022-08-30T10:57:25;23.10;40.60
31731;DHT22;18310;55.586;12.286;2022-08-30T11:00:36;23.20;41.70
31731;DHT22;18310;55.586;12.286;2022-08-30T11:07:55;21.90;39.90
31731;DHT22;18310;55.586;12.286;2022-08-30T11:11:12;23.40;40.30
31731;DHT22;18310;55.586;12.286;2022-08-30T11:14:22;23.40;40.30
31731;DHT22;18310;55.586;12.286;2022-08-30T11:17:31;23.50;40.80
31731;DHT22;18310;55.586;12.286;2022-08-30T11:20:43;23.50;39.90
31731;DHT22;18310;55.586;12.286;2022-08-30T11:24:02;23.50;39.70
31731;DHT22;18310;55.586;12.286;2022-08-30T11:27:38;23.50;39.50
31731;DHT22;18310;55.586;12.286;2022-08-30T11:30:48;23.50;39.00
31731;DHT22;18310;55.586;12.286;2022-08-30T11:33:56;24.50;40.00
31731;DHT22;18310;55.586;12.286;2022-08-30T11:37:02;21.90;39.00
31731;DHT22;18310;55.586;12.286;2022-08-30T11:40:48;23.50;39.80
31731;DHT22;18310;55.586;12.286;2022-08-30T11:43:54;23.50;39.00
31731;DHT22;18310;55.586;12.286;2022-08-30T11:46:58;23.50;39.90
31731;DHT22;18310;55.586;12.286;2022-08-30T11:50:08;23.60;39.90
31731;DHT22;18310;55.586;12.286;2022-08-30T11:53:22;23.60;39.40
31731;DHT22;18310;55.586;12.286;2022-08-30T11:56:35;23.00;39.00
31731;DHT22;18310;55.586;12.286;2022-08-30T11:59:59;24.80;40.00
31731;DHT22;18310;55.586;12.286;2022-08-30T12:03:27;23.60;38.80
31731;DHT22;18310;55.586;12.286;2022-08-30T12:06:46;23.60;39.10
31731;DHT22;18310;55.586;12.286;2022-08-30T12:09:59;23.60;39.60
31731;DHT22;18310;55.586;12.286;2022-08-30T12:16:56;23.70;39.70
31731;DHT22;18310;55.586;12.286;2022-08-30T12:20:26;23.70;40.10
31731;DHT22;18310;55.586;12.286;2022-08-30T12:23:39;23.70;40.40
31731;DHT22;18310;55.586;12.286;2022-08-30T12:26:51;23.70;39.90
31731;DHT22;18310;55.586;12.286;2022-08-30T12:29:58;23.70;40.20
31731;DHT22;18310;55.586;12.286;2022-08-30T12:33:05;23.80;40.10
31731;DHT22;18310;55.586;12.286;2022-08-30T12:36:15;23.80;40.20
31731;DHT22;18310;55.586;12.286;2022-08-30T12:39:36;23.80;40.20
31731;DHT22;18310;55.586;12.286;2022-08-30T12:42:49;23.90;40.20
31731;DHT22;18310;55.586;12.286;2022-08-30T12:45:59;22.20;39.30
31731;DHT22;18310;55.586;12.286;2022-08-30T12:49:08;23.80;39.90
31731;DHT22;18310;55.586;12.286;2022-08-30T12:52:16;23.90;40.10
31731;DHT22;18310;55.586;12.286;2022-08-30T12:55:27;23.90;40.10
31731;DHT22;18310;55.586;12.286;2022-08-30T12:58:41;23.90;40.60
31731;DHT22;18310;55.586;12.286;2022-08-30T13:01:47;24.00;40.30
31731;DHT22;18310;55.586;12.286;2022-08-30T13:04:57;24.10;40.80
31731;DHT22;18310;55.586;12.286;2022-08-30T13:08:13;24.20;40.90
31731;DHT22;18310;55.586;12.286;2022-08-30T13:11:24;24.20;39.60
31731;DHT22;18310;55.586;12.286;2022-08-30T13:14:34;25.40;40.90
31731;DHT22;18310;55.586;12.286;2022-08-30T13:17:44;24.30;40.30
31731;DHT22;18310;55.586;12.286;2022-08-30T13:20:48;24.30;40.50
31731;DHT22;18310;55.586;12.286;2022-08-30T13:23:56;24.30;40.50
31731;DHT22;18310;55.586;12.286;2022-08-30T13:27:04;24.00;40.10
31731;DHT22;18310;55.586;12.286;2022-08-30T13:30:12;24.30;40.50
31731;DHT22;18310;55.586;12.286;2022-08-30T13:33:19;24.20;40.40
31731;DHT22;18310;55.586;12.286;2022-08-30T13:36:25;24.20;40.40
31731;DHT22;18310;55.586;12.286;2022-08-30T13:39:30;24.10;40.50
31731;DHT22;18310;55.586;12.286;2022-08-30T13:42:34;24.00;40.20
31731;DHT22;18310;55.586;12.286;2022-08-30T13:45:37;24.00;40.50
31731;DHT22;18310;55.586;12.286;2022-08-30T13:48:44;23.90;40.70
31731;DHT22;18310;55.586;12.286;2022-08-30T13:51:48;23.90;40.60
31731;DHT22;18310;55.586;12.286;2022-08-30T13:55:14;25.00;41.00
31731;DHT22;18310;55.586;12.286;2022-08-30T13:58:18;23.90;40.30
31731;DHT22;18310;55.586;12.286;2022-08-30T14:01:21;23.40;40.10
31731;DHT22;18310;55.586;12.286;2022-08-30T14:04:27;23.90;40.40
31731;DHT22;18310;55.586;12.286;2022-08-30T14:07:30;23.80;39.70
31731;DHT22;18310;55.586;12.286;2022-08-30T14:10:35;23.80;39.60
31731;DHT22;18310;55.586;12.286;2022-08-30T14:13:48;23.70;39.50
31731;DHT22;18310;55.586;12.286;2022-08-30T14:17:12;23.60;39.70
31731;DHT22;18310;55.586;12.286;2022-08-30T14:20:17;21.80;39.10
31731;DHT22;18310;55.586;12.286;2022-08-30T14:23:21;23.50;40.30
31731;DHT22;18310;55.586;12.286;2022-08-30T14:26:27;23.40;40.60
31731;DHT22;18310;55.586;12.286;2022-08-30T14:29:34;23.40;40.60
31731;DHT22;18310;55.586;12.286;2022-08-30T14:32:39;23.10;40.40
31731;DHT22;18310;55.586;12.286;2022-08-30T14:35:44;23.40;40.70
31731;DHT22;18310;55.586;12.286;2022-08-30T14:38:50;23.50;40.80
31731;DHT22;18310;55.586;12.286;2022-08-30T14:41:54;24.90;41.30
31731;DHT22;18310;55.586;12.286;2022-08-30T14:45:05;23.40;40.40
31731;DHT22;18310;55.586;12.286;2022-08-30T14:48:09;23.40;40.30
31731;DHT22;18310;55.586;12.286;2022-08-30T14:51:19;23.40;40.50
31731;DHT22;18310;55.586;12.286;2022-08-30T14:54:29;23.40;40.70
31731;DHT22;18310;55.586;12.286;2022-08-30T14:57:37;25.10;41.40
31731;DHT22;18310;55.586;12.286;2022-08-30T15:00:42;23.40;40.50
31731;DHT22;18310;55.586;12.286;2022-08-30T15:03:51;22.60;40.00
31731;DHT22;18310;55.586;12.286;2022-08-30T15:06:58;23.30;41.00
31731;DHT22;18310;55.586;12.286;2022-08-30T15:10:02;23.40;41.10
31731;DHT22;18310;55.586;12.286;2022-08-30T15:13:08;23.30;40.30
31731;DHT22;18310;55.586;12.286;2022-08-30T15:16:14;23.40;40.70
31731;DHT22;18310;55.586;12.286;2022-08-30T15:19:20;23.40;41.00
31731;DHT22;18310;55.586;12.286;2022-08-30T15:22:25;22.20;40.40
31731;DHT22;18310;55.586;12.286;2022-08-30T15:25:29;23.30;40.80
31731;DHT22;18310;55.586;12.286;2022-08-30T15:28:33;23.30;41.00
31731;DHT22;18310;55.586;12.286;2022-08-30T15:31:37;22.20;40.90
31731;DHT22;18310;55.586;12.286;2022-08-30T15:34:42;23.20;41.50
31731;DHT22;18310;55.586;12.286;2022-08-30T15:37:58;23.10;41.60
31731;DHT22;18310;55.586;12.286;2022-08-30T15:41:06;23.10;41.70
31731;DHT22;18310;55.586;12.286;2022-08-30T15:44:11;23.00;41.50
31731;DHT22;18310;55.586;12.286;2022-08-30T15:47:15;23.00;42.20
31731;DHT22;18310;55.586;12.286;2022-08-30T15:50:22;22.90;41.70
31731;DHT22;18310;55.586;12.286;2022-08-30T15:53:27;22.80;41.90
31731;DHT22;18310;55.586;12.286;2022-08-30T15:56:31;21.90;41.70
31731;DHT22;18310;55.586;12.286;2022-08-30T15:59:35;22.60;42.50
31731;DHT22;18310;55.586;12.286;2022-08-30T16:02:39;22.60;42.90
31731;DHT22;18310;55.586;12.286;2022-08-30T16:05:43;22.60;43.10
31731;DHT22;18310;55.586;12.286;2022-08-30T16:08:49;22.50;43.30
31731;DHT22;18310;55.586;12.286;2022-08-30T16:11:53;22.60;43.40
31731;DHT22;18310;55.586;12.286;2022-08-30T16:14:57;20.80;42.60
31731;DHT22;18310;55.586;12.286;2022-08-30T16:18:00;22.60;44.20
31731;DHT22;18310;55.586;12.286;2022-08-30T16:21:06;22.60;43.70
31731;DHT22;18310;55.586;12.286;2022-08-30T16:24:13;22.60;43.70
31731;DHT22;18310;55.586;12.286;2022-08-30T16:27:23;22.60;43.80
31731;DHT22;18310;55.586;12.286;2022-08-30T16:30:26;22.60;43.70
31731;DHT22;18310;55.586;12.286;2022-08-30T16:33:29;22.60;43.20
31731;DHT22;18310;55.586;12.286;2022-08-30T16:36:33;22.60;43.80
31731;DHT22;18310;55.586;12.286;2022-08-30T16:39:38;22.50;43.80
31731;DHT22;18310;55.586;12.286;2022-08-30T16:42:47;22.50;43.30
31731;DHT22;18310;55.586;12.286;2022-08-30T16:45:51;22.50;43.60
31731;DHT22;18310;55.586;12.286;2022-08-30T16:48:55;22.40;43.30
31731;DHT22;18310;55.586;12.286;2022-08-30T16:52:01;22.40;43.30
31731;DHT22;18310;55.586;12.286;2022-08-30T16:55:07;22.30;43.40
31731;DHT22;18310;55.586;12.286;2022-08-30T16:58:11;22.60;43.90
31731;DHT22;18310;55.586;12.286;2022-08-30T17:01:20;22.10;43.80
31731;DHT22;18310;55.586;12.286;2022-08-30T17:04:25;24.30;45.20
31731;DHT22;18310;55.586;12.286;2022-08-30T17:07:28;22.00;44.30
31731;DHT22;18310;55.586;12.286;2022-08-30T17:10:33;22.80;44.90
31731;DHT22;18310;55.586;12.286;2022-08-30T17:13:36;21.90;44.60
31731;DHT22;18310;55.586;12.286;2022-08-30T17:16:41;21.70;44.50
31731;DHT22;18310;55.586;12.286;2022-08-30T17:19:46;21.80;44.90
31731;DHT22;18310;55.586;12.286;2022-08-30T17:22:50;21.70;44.90
31731;DHT22;18310;55.586;12.286;2022-08-30T17:25:56;21.70;45.00
31731;DHT22;18310;55.586;12.286;2022-08-30T17:29:00;21.60;45.30
31731;DHT22;18310;55.586;12.286;2022-08-30T17:32:04;21.50;45.30
31731;DHT22;18310;55.586;12.286;2022-08-30T17:35:10;22.30;46.00
31731;DHT22;18310;55.586;12.286;2022-08-30T17:38:14;21.40;45.90
31731;DHT22;18310;55.586;12.286;2022-08-30T17:41:19;21.40;46.10
31731;DHT22;18310;55.586;12.286;2022-08-30T17:44:24;21.30;46.40
31731;DHT22;18310;55.586;12.286;2022-08-30T17:47:30;23.60;47.70
31731;DHT22;18310;55.586;12.286;2022-08-30T17:50:37;21.20;46.50
31731;DHT22;18310;55.586;12.286;2022-08-30T17:53:41;21.50;47.00
31731;DHT22;18310;55.586;12.286;2022-08-30T17:56:47;21.10;47.00
31731;DHT22;18310;55.586;12.286;2022-08-30T17:59:52;21.00;47.20
31731;DHT22;18310;55.586;12.286;2022-08-30T18:02:57;20.90;47.30
31731;DHT22;18310;55.586;12.286;2022-08-30T18:06:01;20.90;47.40
31731;DHT22;18310;55.586;12.286;2022-08-30T18:09:04;20.80;47.60
31731;DHT22;18310;55.586;12.286;2022-08-30T18:12:11;20.70;47.80
31731;DHT22;18310;55.586;12.286;2022-08-30T18:15:15;20.60;47.90
31731;DHT22;18310;55.586;12.286;2022-08-30T18:18:18;20.50;47.90
31731;DHT22;18310;55.586;12.286;2022-08-30T18:21:23;20.40;48.10
31731;DHT22;18310;55.586;12.286;2022-08-30T18:24:29;20.40;48.20
31731;DHT22;18310;55.586;12.286;2022-08-30T18:27:36;20.30;48.50
31731;DHT22;18310;55.586;12.286;2022-08-30T18:30:40;20.20;48.80
31731;DHT22;18310;55.586;12.286;2022-08-30T18:33:46;20.20;48.90
31731;DHT22;18310;55.586;12.286;2022-08-30T18:36:49;19.80;48.80
31731;DHT22;18310;55.586;12.286;2022-08-30T18:39:53;20.00;49.30
31731;DHT22;18310;55.586;12.286;2022-08-30T18:42:58;20.00;49.30
31731;DHT22;18310;55.586;12.286;2022-08-30T18:46:08;19.90;49.70
31731;DHT22;18310;55.586;12.286;2022-08-30T18:49:12;20.10;49.80
31731;DHT22;18310;55.586;12.286;2022-08-30T18:52:17;18.20;48.90
31731;DHT22;18310;55.586;12.286;2022-08-30T18:55:21;19.70;49.90
31731;DHT22;18310;55.586;12.286;2022-08-30T18:58:26;19.70;50.30
31731;DHT22;18310;55.586;12.286;2022-08-30T19:01:29;20.20;50.70
31731;DHT22;18310;55.586;12.286;2022-08-30T19:04:33;19.50;50.50
31731;DHT22;18310;55.586;12.286;2022-08-30T19:07:36;19.40;50.70
31731;DHT22;18310;55.586;12.286;2022-08-30T19:10:41;19.50;51.00
31731;DHT22;18310;55.586;12.286;2022-08-30T19:13:45;19.40;50.70
31731;DHT22;18310;55.586;12.286;2022-08-30T19:16:52;19.30;51.20
31731;DHT22;18310;55.586;12.286;2022-08-30T19:19:55;17.70;50.60
31731;DHT22;18310;55.586;12.286;2022-08-30T19:22:58;18.60;51.30
31731;DHT22;18310;55.586;12.286;2022-08-30T19:26:11;19.10;51.90
31731;DHT22;18310;55.586;12.286;2022-08-30T19:29:16;19.00;52.20
31731;DHT22;18310;55.586;12.286;2022-08-30T19:32:20;19.00;52.50
31731;DHT22;18310;55.586;12.286;2022-08-30T19:35:25;18.90;52.70